Time;durP1;ratioP1;P1;durP2;ratioP2;P2;SDS_P1;SDS_P2;PMS_P1;PMS_P2;Temp;Humidity;BMP_temperature;BMP_pressure;BME280_temperature;BME280_humidity;BME280_pressure;Samples;Min_cycle;Max_cycle;Signal;HPM_P1;HPM_P2
2023/03/19 00:06:35;;;;;;;47.85;21.20;;;;;;;6.57;79.54;101443.53;4898698;29;20132;-94
2023/03/19 00:09:05;;;;;;;42.67;21.20;;;;;;;6.67;79.71;101476.59;4869877;29;20045;-91
2023/03/19 00:11:32;;;;;;;45.33;21.02;;;;;;;6.48;80.04;101453.94;4865551;29;20035;-93
2023/03/19 00:13:58;;;;;;;46.47;20.77;;;;;;;6.55;80.12;101468.56;4875595;29;20100;-93
2023/03/19 00:16:25;;;;;;;44.75;19.95;;;;;;;6.85;79.54;101477.88;4862889;29;20044;-90
2023/03/19 00:18:56;;;;;;;44.65;20.40;;;;;;;6.93;79.35;101486.19;4870812;29;20173;-95
2023/03/19 00:21:29;;;;;;;41.13;20.60;;;;;;;7.06;79.17;101496.78;4874867;29;20036;-94
2023/03/19 00:24:10;;;;;;;46.20;20.88;;;;;;;7.19;78.85;101504.72;4852324;29;20131;-94
2023/03/19 00:26:50;;;;;;;42.88;20.73;;;;;;;7.11;78.73;101480.38;4886118;29;20124;-94
2023/03/19 00:29:24;;;;;;;39.90;20.45;;;;;;;7.03;78.99;101488.16;4875076;29;20062;-90
2023/03/19 00:31:51;;;;;;;41.65;20.70;;;;;;;6.84;79.12;101453.97;4874115;29;20056;-91
2023/03/19 00:34:23;;;;;;;41.83;20.98;;;;;;;7.01;78.52;101463.34;4872504;29;20143;-95
2023/03/19 00:36:52;;;;;;;46.28;21.83;;;;;;;7.07;78.85;101473.56;4880359;29;20045;-92
2023/03/19 00:39:20;;;;;;;41.15;21.05;;;;;;;6.86;78.37;101452.00;4862032;29;20509;-93
2023/03/19 00:41:49;;;;;;;43.67;20.75;;;;;;;6.89;78.44;101436.59;4862415;29;20032;-91
2023/03/19 00:44:17;;;;;;;40.85;20.48;;;;;;;7.11;78.26;101470.53;4873922;29;20040;-91
2023/03/19 00:46:44;;;;;;;42.78;20.73;;;;;;;6.90;78.07;101450.81;4867425;29;20568;-94
2023/03/19 00:49:10;;;;;;;40.85;21.13;;;;;;;7.02;77.88;101462.38;4893495;29;20049;-94
2023/03/19 00:51:37;;;;;;;44.67;22.20;;;;;;;7.21;77.72;101493.88;4893496;29;20047;-94
2023/03/19 00:59:20;;;;;;;40.63;20.50;;;;;;;6.81;78.06;101460.38;4993712;23;20070;-92
2023/03/19 01:01:48;;;;;;;38.00;20.05;;;;;;;7.04;77.73;101466.63;4920191;29;20302;-91
2023/03/19 01:04:20;;;;;;;45.17;21.13;;;;;;;7.15;77.77;101479.19;4909785;29;20040;-91
2023/03/19 01:06:50;;;;;;;38.40;20.98;;;;;;;7.06;78.02;101447.81;4925119;29;20023;-93
2023/03/19 01:09:19;;;;;;;42.72;20.80;;;;;;;7.00;77.76;101445.59;4938515;28;20028;-94
2023/03/19 01:12:07;;;;;;;;;;;;;;;;;;;;;
2023/03/19 01:14:41;;;;;;;41.10;21.05;;;;;;;6.88;77.68;101439.38;4933224;29;20070;-96
2023/03/19 01:17:19;;;;;;;41.42;20.58;;;;;;;7.03;77.25;101448.06;4906052;29;20058;-94
2023/03/19 01:20:26;;;;;;;39.78;20.25;;;;;;;7.12;77.87;101474.09;4973534;23;20307;-94
2023/03/19 01:22:56;;;;;;;38.83;19.85;;;;;;;6.82;78.47;101446.06;4959834;28;20047;-92
2023/03/19 01:30:34;;;;;;;40.50;20.13;;;;;;;6.57;78.58;101427.50;5642408;23;20322;-93
2023/03/19 01:33:29;;;;;;;40.78;20.85;;;;;;;6.97;78.33;101479.59;4922724;29;20091;-91
2023/03/19 01:36:08;;;;;;;34.35;19.10;;;;;;;6.91;77.59;101450.69;4962490;28;20468;-91
2023/03/19 01:38:43;;;;;;;35.28;19.48;;;;;;;6.84;77.59;101438.78;4922991;29;20044;-93
2023/03/19 01:45:35;;;;;;;36.47;19.23;;;;;;;7.00;77.67;101483.91;4858144;29;20237;-94
2023/03/19 01:55:17;;;;;;;42.22;20.25;;;;;;;6.68;79.14;101486.34;4835009;29;20069;-93
2023/03/19 02:01:16;;;;;;;38.83;18.90;;;;;;;6.58;79.77;101494.19;4890965;29;20123;-94
2023/03/19 02:03:58;;;;;;;45.03;20.58;;;;;;;6.62;79.97;101492.13;4899580;29;20049;-95
2023/03/19 02:07:06;;;;;;;47.70;19.70;;;;;;;6.72;79.31;101494.00;4883491;29;20063;-94
2023/03/19 02:09:52;;;;;;;40.35;19.52;;;;;;;6.74;79.43;101496.53;4904324;29;20032;-94
2023/03/19 02:16:34;;;;;;;40.25;19.58;;;;;;;6.69;79.88;101496.03;4877871;29;20049;-93
2023/03/19 02:23:20;;;;;;;38.83;18.88;;;;;;;6.86;78.85;101506.34;4888208;29;20040;-92
2023/03/19 02:26:14;;;;;;;38.95;18.67;;;;;;;6.93;78.98;101504.91;4848620;29;20037;-92
2023/03/19 02:29:09;;;;;;;40.03;19.17;;;;;;;6.79;78.68;101493.53;4871471;29;20032;-94
2023/03/19 02:32:08;;;;;;;40.55;20.02;;;;;;;6.93;78.34;101506.69;4882095;29;20093;-93
2023/03/19 02:34:45;;;;;;;38.50;18.73;;;;;;;6.87;78.61;101508.03;4875370;29;20036;-93
2023/03/19 02:37:53;;;;;;;38.63;19.27;;;;;;;6.84;78.45;101513.63;4844004;29;20106;-93
2023/03/19 02:41:11;;;;;;;39.85;19.55;;;;;;;6.76;78.32;101494.63;4882376;29;20569;-91
2023/03/19 02:44:20;;;;;;;38.22;18.52;;;;;;;7.04;78.22;101521.94;4882187;29;20136;-95
2023/03/19 02:46:55;;;;;;;45.72;20.23;;;;;;;6.71;78.78;101502.97;4864148;29;20044;-92
2023/03/19 02:54:02;;;;;;;;;;;;;;;;;;;;;
2023/03/19 03:07:42;;;;;;;37.70;17.92;;;;;;;6.84;78.70;101543.03;4800178;30;20053;-93
2023/03/19 04:03:46;;;;;;;33.60;15.00;;;;;;;6.74;78.08;101566.03;5832014;23;20063;-93
2023/03/19 04:06:19;;;;;;;;;;;;;;;6.65;78.19;101567.59;4918825;29;20123;-91
2023/03/19 04:08:48;;;;;;;29.08;14.13;;;;;;;6.55;77.97;101545.16;4955914;29;20098;-93
2023/03/19 04:15:21;;;;;;;28.77;14.13;;;;;;;6.72;77.61;101568.84;4947639;29;20042;-94
2023/03/19 04:19:01;;;;;;;;;;;;;;;;;;;;;
2023/03/19 04:21:56;;;;;;;28.25;13.70;;;;;;;6.60;77.35;101542.16;4917725;29;20127;-95
2023/03/19 04:59:33;;;;;;;29.08;13.02;;;;;;;6.95;76.91;101591.19;4961100;28;20563;-95
2023/03/19 05:02:07;;;;;;;30.25;14.10;;;;;;;6.69;77.12;101547.66;4954595;29;20134;-94
2023/03/19 05:04:38;;;;;;;31.45;15.25;;;;;;;6.81;77.42;101577.13;4916732;29;20079;-92
2023/03/19 05:07:34;;;;;;;33.40;15.07;;;;;;;6.66;77.41;101566.63;4901543;29;20035;-93
2023/03/19 05:10:31;;;;;;;;;;;;;;;6.80;77.77;101596.81;4936446;29;20028;-94
2023/03/19 05:13:16;;;;;;;27.75;13.98;;;;;;;6.70;77.55;101576.13;4918718;29;19922;-92
2023/03/19 05:15:44;;;;;;;37.45;15.07;;;;;;;6.55;77.51;101550.50;4906269;29;20024;-92
2023/03/19 05:18:12;;;;;;;30.92;14.35;;;;;;;6.65;76.39;101545.34;4902827;29;20051;-93
2023/03/19 05:38:10;;;;;;;;;;;;;;;;;;;;;
2023/03/19 05:44:14;;;;;;;28.25;13.07;;;;;;;6.74;75.83;101566.03;4864964;29;20454;-92
2023/03/19 05:46:57;;;;;;;25.45;12.45;;;;;;;7.02;75.29;101604.94;4810572;29;20090;-93
2023/03/19 05:49:48;;;;;;;24.88;12.30;;;;;;;7.37;73.80;101591.59;4810233;29;20138;-93
2023/03/19 05:52:35;;;;;;;21.85;11.13;;;;;;;7.29;73.44;101593.13;4812009;29;20156;-92
2023/03/19 05:58:31;;;;;;;22.48;12.38;;;;;;;7.00;73.80;101550.75;4830864;29;20122;-93
2023/03/19 06:01:25;;;;;;;21.80;12.45;;;;;;;6.81;74.15;101542.38;4812201;29;20156;-93
2023/03/19 12:23:57;;;;;;;11.93;6.75;;;;;;;14.57;47.03;101474.91;5011587;23;20170;-86
2023/03/19 12:26:31;;;;;;;9.13;6.20;;;;;;;14.28;47.22;101473.50;4951103;28;20047;-87
2023/03/19 12:29:28;;;;;;;11.20;6.78;;;;;;;13.98;48.45;101472.22;4942245;29;20046;-88
2023/03/19 12:31:54;;;;;;;10.13;6.40;;;;;;;13.94;48.73;101476.25;4938351;28;20130;-87
2023/03/19 12:34:50;;;;;;;10.90;6.78;;;;;;;13.88;48.48;101475.06;4960203;28;20163;-89
2023/03/19 12:37:18;;;;;;;10.25;6.50;;;;;;;13.64;49.56;101474.94;4937708;28;20434;-90
2023/03/19 12:40:18;;;;;;;10.05;5.95;;;;;;;13.50;49.13;101442.09;4945792;28;20110;-89
2023/03/19 12:42:44;;;;;;;9.65;5.85;;;;;;;13.41;49.81;101453.03;4960940;28;20046;-88
2023/03/19 12:45:30;;;;;;;16.50;9.27;;;;;;;13.45;49.57;101466.03;4963467;28;20054;-88
2023/03/19 12:48:35;;;;;;;21.33;9.88;;;;;;;13.63;49.05;101468.69;4937470;29;20043;-88
2023/03/19 12:51:05;;;;;;;;;;;;;;;14.04;48.04;101473.41;4958528;28;20043;-89
2023/03/19 12:53:43;;;;;;;18.05;8.40;;;;;;;14.10;48.08;101465.50;4963868;28;19922;-90
2023/03/19 12:56:22;;;;;;;13.90;8.27;;;;;;;13.83;48.05;101434.13;4936986;28;20046;-92
2023/03/19 12:59:25;;;;;;;10.93;6.93;;;;;;;14.19;47.90;101465.50;4940509;28;20134;-89
2023/03/19 13:01:56;;;;;;;11.02;6.72;;;;;;;14.23;47.66;101447.94;4940822;28;20042;-90
2023/03/19 13:05:09;;;;;;;22.50;10.80;;;;;;;14.50;46.97;101461.19;4921885;29;20114;-91
2023/03/19 13:11:02;;;;;;;12.98;6.10;;;;;;;14.67;46.27;101428.75;4958364;29;20075;-92
2023/03/19 13:14:07;;;;;;;14.45;8.48;;;;;;;14.93;45.73;101413.16;4944443;28;20039;-90
2023/03/19 13:16:39;;;;;;;9.82;6.30;;;;;;;14.77;45.86;101430.28;4955681;28;20062;-85
2023/03/19 13:19:34;;;;;;;10.55;6.15;;;;;;;14.98;45.92;101451.41;4936745;28;20435;-88
2023/03/19 13:22:03;;;;;;;21.52;12.85;;;;;;;14.90;45.80;101435.16;4935160;29;20050;-88
2023/03/19 13:24:34;;;;;;;9.20;6.18;;;;;;;14.88;45.16;101417.41;4930585;29;20063;-89
2023/03/19 13:27:03;;;;;;;12.88;7.22;;;;;;;14.99;45.36;101426.03;4936764;29;20062;-88
2023/03/19 13:29:53;;;;;;;9.68;6.68;;;;;;;15.06;45.71;101438.88;4904009;29;20058;-91
2023/03/19 13:32:26;;;;;;;10.05;6.45;;;;;;;14.91;45.56;101430.59;4954866;28;20060;-88
2023/03/19 13:38:43;;;;;;;10.63;7.05;;;;;;;14.46;47.16;101427.34;4965226;28;20045;-87
2023/03/19 13:42:06;;;;;;;9.18;6.47;;;;;;;14.33;48.02;101443.25;4983550;28;20035;-88
2023/03/19 13:45:03;;;;;;;11.98;7.43;;;;;;;13.73;49.29;101433.44;4961216;28;20075;-89
2023/03/19 13:47:31;;;;;;;11.15;6.55;;;;;;;13.76;49.07;101437.66;4934470;29;20035;-90
2023/03/19 13:50:21;;;;;;;9.35;5.72;;;;;;;13.67;49.40;101429.53;4965436;28;20106;-89
2023/03/19 13:52:56;;;;;;;9.73;6.22;;;;;;;13.32;49.90;101399.97;4940154;28;20061;-90
2023/03/19 13:59:18;;;;;;;13.38;7.55;;;;;;;12.82;52.02;101417.69;4977170;28;20188;-90
2023/03/19 14:01:51;;;;;;;11.20;7.28;;;;;;;12.15;53.15;101374.09;4977656;28;20035;-89
2023/03/19 14:04:57;;;;;;;;;;;;;;;;;;;;;
2023/03/19 14:08:12;;;;;;;13.23;7.53;;;;;;;12.72;52.96;101400.75;4990378;28;20571;-92
2023/03/19 14:11:28;;;;;;;11.75;6.93;;;;;;;12.88;52.58;101401.72;4943048;28;20067;-91
2023/03/19 14:14:06;;;;;;;16.33;8.68;;;;;;;12.57;52.34;101363.56;5140523;23;20509;-89
2023/03/19 14:16:45;;;;;;;15.60;7.60;;;;;;;12.38;53.15;101353.75;4933072;28;20115;-92
2023/03/19 14:45:48;;;;;;;11.18;7.00;;;;;;;11.36;56.31;101380.97;4985290;28;20177;-94
2023/03/19 14:52:10;;;;;;;10.88;6.53;;;;;;;12.43;53.50;101400.00;5260312;23;20042;-94
2023/03/19 14:55:28;;;;;;;;;;;;;;;;;;;;;
2023/03/19 14:59:22;;;;;;;;;;;;;;;;;;;;;
2023/03/19 15:03:10;;;;;;;;;;;;;;;;;;;;;
2023/03/19 15:24:09;;;;;;;;;;;;;;;;;;;;;
2023/03/19 16:14:58;;;;;;;20.92;9.75;;;;;;;8.54;75.27;101460.91;5820881;23;20054;-96
2023/03/19 16:17:35;;;;;;;16.33;9.68;;;;;;;8.22;76.75;101421.56;4955378;28;20130;-88
2023/03/19 16:20:02;;;;;;;19.25;10.10;;;;;;;8.01;78.58;101427.72;4933670;29;20051;-90
2023/03/19 16:22:30;;;;;;;20.20;9.88;;;;;;;8.02;79.59;101463.38;4931158;29;20079;-91
2023/03/19 16:24:56;;;;;;;19.65;10.40;;;;;;;7.91;79.75;101433.91;4944735;28;20133;-90
2023/03/19 16:27:38;;;;;;;21.30;10.30;;;;;;;7.81;80.94;101444.53;4930523;29;20126;-89
2023/03/19 16:30:24;;;;;;;23.30;10.95;;;;;;;7.73;81.31;101436.28;4938412;29;20035;-91
2023/03/19 16:33:05;;;;;;;25.52;13.43;;;;;;;7.72;81.54;101456.81;4917670;29;20044;-90
2023/03/19 16:35:35;;;;;;;24.02;12.77;;;;;;;7.55;81.65;101438.59;4915625;29;20118;-90
2023/03/19 16:38:17;;;;;;;22.08;11.70;;;;;;;7.57;82.06;101452.72;4918008;29;20078;-88
2023/03/19 16:40:47;;;;;;;23.10;11.10;;;;;;;7.54;82.83;101472.53;4928113;28;20459;-89
2023/03/19 16:43:21;;;;;;;22.95;10.50;;;;;;;7.32;83.18;101441.25;4951722;28;20456;-89
2023/03/19 16:46:15;;;;;;;24.02;10.65;;;;;;;7.42;83.27;101478.84;4924831;28;20126;-91
2023/03/19 16:48:44;;;;;;;26.70;10.88;;;;;;;7.11;83.67;101434.91;4932360;29;20039;-89
2023/03/19 16:51:17;;;;;;;23.65;11.52;;;;;;;7.16;83.70;101449.66;4946747;29;20109;-91
2023/03/19 16:53:45;;;;;;;20.15;10.05;;;;;;;7.21;84.57;101478.72;4925712;29;20131;-87
2023/03/19 16:56:17;;;;;;;18.75;10.13;;;;;;;7.19;84.56;101475.31;4922087;29;20127;-88
2023/03/19 16:58:44;;;;;;;23.70;11.38;;;;;;;7.21;84.67;101476.03;4933514;28;20039;-90
2023/03/19 17:01:19;;;;;;;32.88;13.63;;;;;;;6.83;85.10;101428.19;4923528;29;20172;-88
2023/03/19 17:03:48;;;;;;;27.40;12.73;;;;;;;6.96;85.16;101456.53;4936129;28;20043;-88
2023/03/19 17:06:14;;;;;;;25.48;12.50;;;;;;;6.84;85.58;101443.28;4937651;29;20038;-88
2023/03/19 17:08:42;;;;;;;23.65;11.23;;;;;;;7.02;85.95;101465.88;4939526;28;20051;-89
2023/03/19 17:11:28;;;;;;;25.35;11.65;;;;;;;6.91;85.89;101464.06;4938860;28;20034;-88
2023/03/19 17:13:55;;;;;;;24.10;10.48;;;;;;;7.13;85.62;101497.16;4939377;29;20418;-88
2023/03/19 17:16:20;;;;;;;22.80;10.00;;;;;;;7.01;86.12;101484.75;4955743;29;20055;-88
2023/03/19 17:18:48;;;;;;;20.42;9.75;;;;;;;6.85;86.19;101455.66;4962432;29;20034;-89
2023/03/19 17:21:20;;;;;;;25.33;10.32;;;;;;;6.81;86.40;101455.03;4940360;29;20058;-89
2023/03/19 17:23:46;;;;;;;27.38;10.27;;;;;;;6.80;86.25;101453.34;4925094;29;20039;-90
2023/03/19 17:26:50;;;;;;;21.38;9.90;;;;;;;6.86;86.54;101476.94;4943214;29;20055;-91
2023/03/19 17:29:36;;;;;;;20.23;9.90;;;;;;;6.95;86.31;101484.25;4958985;29;20400;-90
2023/03/19 17:34:49;;;;;;;23.93;9.83;;;;;;;6.85;86.79;101477.88;5185744;23;20067;-90
2023/03/19 17:37:15;;;;;;;18.23;9.68;;;;;;;6.75;86.33;101452.84;4942961;28;20717;-88
2023/03/19 17:39:44;;;;;;;24.35;9.60;;;;;;;6.69;85.93;101445.28;4956669;29;20054;-90
2023/03/19 17:42:38;;;;;;;18.95;9.20;;;;;;;6.91;86.19;101485.44;4936767;28;20125;-94
2023/03/19 17:45:24;;;;;;;25.15;10.40;;;;;;;6.87;86.38;101491.16;4965306;28;20023;-92
2023/03/19 17:48:24;;;;;;;20.65;9.68;;;;;;;6.90;85.97;101485.56;4943591;28;20137;-94
2023/03/19 17:54:13;;;;;;;21.67;9.13;;;;;;;6.80;84.97;101457.84;4980346;28;20534;-92
2023/03/19 17:56:42;;;;;;;21.80;8.52;;;;;;;7.00;84.72;101501.75;4958690;28;20042;-91
2023/03/19 17:59:45;;;;;;;17.80;8.43;;;;;;;6.94;85.19;101503.91;4941746;28;20451;-92
2023/03/19 18:05:49;;;;;;;19.40;8.70;;;;;;;6.81;85.55;101507.63;4977439;28;20117;-95
2023/03/19 18:08:25;;;;;;;20.60;9.05;;;;;;;6.89;85.61;101518.63;4941344;28;20043;-90
2023/03/19 18:10:58;;;;;;;21.40;9.25;;;;;;;6.64;85.39;101475.00;4977594;28;20038;-91
2023/03/19 18:13:24;;;;;;;26.98;9.68;;;;;;;6.91;85.24;101509.50;4975407;28;20786;-91
2023/03/19 18:15:50;;;;;;;31.00;10.10;;;;;;;7.02;84.61;101506.00;4947423;28;20066;-90
2023/03/19 18:18:20;;;;;;;19.95;10.00;;;;;;;7.03;84.33;101502.38;4953689;28;20463;-90
2023/03/19 18:20:46;;;;;;;21.67;8.60;;;;;;;6.94;83.47;101493.22;4915049;29;20043;-91
2023/03/19 18:26:34;;;;;;;21.85;9.40;;;;;;;6.93;83.42;101478.16;4983355;28;20077;-94
2023/03/19 18:29:17;;;;;;;18.65;9.52;;;;;;;7.19;83.32;101516.28;4944495;28;20050;-93
2023/03/19 18:35:43;;;;;;;22.77;9.45;;;;;;;7.33;81.92;101538.44;4965825;29;20101;-90
2023/03/19 18:38:22;;;;;;;16.70;8.02;;;;;;;7.18;81.38;101516.38;4938471;29;20066;-88
2023/03/19 18:40:49;;;;;;;17.90;8.68;;;;;;;7.32;81.01;101516.16;4922454;29;20073;-89
2023/03/19 18:43:16;;;;;;;16.73;8.32;;;;;;;7.18;80.09;101495.81;4937386;29;20039;-88
2023/03/19 18:45:45;;;;;;;16.08;8.75;;;;;;;7.40;80.17;101521.78;4926267;29;20074;-88
2023/03/19 18:48:22;;;;;;;17.83;9.38;;;;;;;7.46;80.10;101530.31;4919811;29;20055;-87
2023/03/19 18:50:47;;;;;;;17.27;9.25;;;;;;;7.33;80.18;101512.53;4956327;29;20072;-87
2023/03/19 18:53:51;;;;;;;19.75;8.75;;;;;;;7.43;79.82;101511.81;4960392;29;20039;-92
2023/03/19 18:56:41;;;;;;;20.95;8.43;;;;;;;7.35;79.17;101486.50;4958532;29;20352;-87
2023/03/19 18:59:21;;;;;;;19.92;8.77;;;;;;;7.58;78.92;101526.66;4934319;29;20040;-86
2023/03/19 19:01:47;;;;;;;18.48;8.82;;;;;;;7.51;78.82;101512.06;4945471;29;20368;-85
2023/03/19 19:04:21;;;;;;;23.20;9.50;;;;;;;7.68;78.90;101533.00;4911626;29;20084;-87
2023/03/19 19:06:47;;;;;;;21.42;9.38;;;;;;;7.53;78.55;101499.41;4919520;29;20036;-88
2023/03/19 19:09:18;;;;;;;19.13;8.60;;;;;;;7.55;78.15;101502.81;4940887;29;20099;-90
2023/03/19 19:11:45;;;;;;;18.67;8.25;;;;;;;7.63;78.33;101521.78;4936071;29;20047;-88
2023/03/19 19:14:21;;;;;;;15.15;8.00;;;;;;;7.64;77.88;101520.00;4919582;29;20051;-90
2023/03/19 19:16:47;;;;;;;20.80;8.68;;;;;;;7.75;77.81;101520.84;4906708;29;20063;-88
2023/03/19 19:19:21;;;;;;;18.23;9.20;;;;;;;7.54;77.47;101479.72;4910125;29;20429;-88
2023/03/19 19:21:47;;;;;;;18.90;8.88;;;;;;;7.75;77.36;101510.13;4915354;29;20141;-88
2023/03/19 19:24:13;;;;;;;18.98;8.23;;;;;;;7.79;76.97;101533.00;4948907;29;20035;-88
2023/03/19 19:27:03;;;;;;;15.30;7.65;;;;;;;7.77;77.20;101534.09;4934541;29;20039;-87
2023/03/19 19:29:31;;;;;;;18.23;8.07;;;;;;;7.71;77.50;101527.41;4944338;28;20042;-89
2023/03/19 19:32:03;;;;;;;18.52;7.80;;;;;;;7.33;77.91;101485.78;4949840;28;20389;-87
2023/03/19 19:34:28;;;;;;;16.80;8.50;;;;;;;7.55;77.81;101516.19;4933897;29;20043;-89
2023/03/19 19:36:57;;;;;;;23.10;8.68;;;;;;;7.66;77.60;101521.56;4937057;29;20495;-88
2023/03/19 19:39:23;;;;;;;18.50;8.77;;;;;;;7.57;77.58;101523.13;4935993;29;20091;-88
2023/03/19 19:41:50;;;;;;;;;;;;;;;7.68;76.94;101534.81;4931929;29;20043;-85
2023/03/19 19:44:20;;;;;;;16.27;7.47;;;;;;;7.69;76.55;101539.22;4935916;29;20016;-87
2023/03/19 19:46:45;;;;;;;13.90;8.25;;;;;;;7.42;77.07;101497.56;4934783;29;20473;-87
2023/03/19 19:49:15;;;;;;;17.13;8.43;;;;;;;7.55;77.39;101529.59;4915556;29;20044;-88
2023/03/19 19:51:40;;;;;;;17.60;7.78;;;;;;;7.52;77.45;101511.09;4938691;29;20043;-88
2023/03/19 19:54:06;;;;;;;16.20;8.70;;;;;;;7.38;77.81;101504.16;4967525;29;20118;-89
2023/03/19 19:56:32;;;;;;;16.75;8.77;;;;;;;7.32;78.31;101513.47;4949789;29;20075;-85
2023/03/19 19:58:58;;;;;;;21.58;9.00;;;;;;;7.52;77.87;101519.13;4967178;29;20055;-90
2023/03/19 20:01:25;;;;;;;17.20;8.93;;;;;;;7.52;77.76;101503.06;4942948;29;20023;-90
2023/03/19 20:03:50;;;;;;;;;;;;;;;7.63;77.64;101521.78;4952776;29;20070;-87
2023/03/19 20:06:16;;;;;;;17.85;8.75;;;;;;;7.59;77.58;101509.66;4948461;29;20078;-86
2023/03/19 20:08:42;;;;;;;14.23;7.97;;;;;;;7.60;77.50;101501.47;4934365;29;20069;-86
2023/03/19 20:11:29;;;;;;;14.80;7.82;;;;;;;7.45;77.59;101504.53;4915594;29;20091;-89
2023/03/19 20:13:55;;;;;;;18.40;8.13;;;;;;;7.24;77.70;101478.47;4948274;29;20043;-89
2023/03/19 20:16:23;;;;;;;14.20;8.45;;;;;;;7.37;77.80;101500.63;4929559;29;20767;-87
2023/03/19 20:18:52;;;;;;;19.35;8.80;;;;;;;7.34;77.83;101524.91;4931579;29;20062;-89
2023/03/19 20:21:21;;;;;;;16.23;8.05;;;;;;;7.44;77.37;101516.19;4930111;29;20087;-88
2023/03/19 20:24:13;;;;;;;16.30;8.38;;;;;;;7.51;77.23;101526.28;4928556;29;20451;-93
2023/03/19 20:26:40;;;;;;;15.82;8.73;;;;;;;7.36;77.33;101482.84;4959979;29;20039;-90
2023/03/19 22:02:40;;;;;;;17.00;8.70;;;;;;;7.06;78.70;101498.59;3110358;23;20050;-86
2023/03/19 22:05:15;;;;;;;16.70;8.70;;;;;;;7.11;78.03;101509.81;4971789;28;20051;-89
2023/03/19 22:07:49;;;;;;;21.08;8.82;;;;;;;7.04;77.31;101476.47;4945779;28;20050;-87
2023/03/19 22:10:18;;;;;;;17.25;9.05;;;;;;;7.13;77.46;101483.78;4972734;28;20058;-91
2023/03/19 22:12:53;;;;;;;17.92;8.98;;;;;;;7.11;77.53;101485.72;4959011;28;20105;-94
2023/03/19 22:15:34;;;;;;;19.48;8.93;;;;;;;7.19;77.30;101478.81;4958553;28;20043;-88
2023/03/19 22:18:04;;;;;;;15.52;8.45;;;;;;;7.37;76.72;101511.34;4975995;28;20050;-86
2023/03/19 22:20:30;;;;;;;14.60;8.60;;;;;;;7.06;77.88;101509.31;4953436;28;20400;-92
2023/03/19 22:22:57;;;;;;;18.23;8.77;;;;;;;7.13;77.87;101497.16;4940536;28;20095;-86
2023/03/19 22:25:23;;;;;;;15.45;8.70;;;;;;;6.89;78.58;101481.19;4969361;28;20477;-91
2023/03/19 22:27:49;;;;;;;18.48;9.10;;;;;;;6.84;78.62;101462.81;4956649;28;20041;-88
2023/03/19 22:30:43;;;;;;;16.45;8.57;;;;;;;6.68;78.91;101460.47;4946523;28;20047;-91
2023/03/19 22:33:17;;;;;;;18.30;9.20;;;;;;;6.68;79.46;101481.00;4950923;28;20042;-86
2023/03/19 22:35:49;;;;;;;19.80;10.55;;;;;;;6.86;79.06;101473.38;4944195;28;20027;-90
2023/03/19 22:38:17;;;;;;;17.42;9.20;;;;;;;6.91;79.15;101477.44;4943151;28;20137;-89
2023/03/19 22:44:08;;;;;;;16.25;8.63;;;;;;;7.01;79.13;101498.13;4965086;28;20097;-88
2023/03/19 22:46:39;;;;;;;17.63;9.45;;;;;;;7.03;79.13;101493.50;4945967;28;20054;-86
2023/03/19 22:49:15;;;;;;;18.45;9.30;;;;;;;7.00;79.50;101496.41;4976405;28;20444;-88
2023/03/19 22:51:42;;;;;;;15.15;9.07;;;;;;;6.94;79.21;101471.84;4964670;28;20476;-88
2023/03/19 22:54:09;;;;;;;16.75;9.07;;;;;;;7.03;78.76;101464.09;4955760;28;20538;-87
2023/03/19 22:56:35;;;;;;;18.30;8.98;;;;;;;6.95;78.87;101444.16;4940108;28;20031;-89
2023/03/19 22:59:01;;;;;;;20.58;9.82;;;;;;;7.06;78.64;101480.72;4950277;28;20129;-89
2023/03/19 23:01:28;;;;;;;18.33;9.38;;;;;;;6.95;78.73;101462.88;4959903;28;20151;-88
2023/03/19 23:03:55;;;;;;;17.58;9.63;;;;;;;7.14;78.74;101486.34;4961186;28;20051;-88
2023/03/19 23:06:26;;;;;;;17.70;9.07;;;;;;;7.14;79.03;101482.81;4947260;28;20051;-88
2023/03/19 23:08:53;;;;;;;19.40;9.73;;;;;;;7.12;78.67;101469.59;4955926;28;20042;-88
2023/03/19 23:11:19;;;;;;;23.67;10.38;;;;;;;7.19;78.53;101475.31;4973237;28;20497;-89
2023/03/19 23:13:44;;;;;;;21.73;10.65;;;;;;;7.11;78.57;101472.38;4972911;28;20062;-87
2023/03/19 23:16:20;;;;;;;21.23;10.43;;;;;;;6.86;78.55;101452.00;4955841;28;20042;-87
2023/03/19 23:22:14;;;;;;;19.67;10.85;;;;;;;6.90;79.26;101459.66;4974255;28;20379;-87
2023/03/19 23:24:44;;;;;;;22.75;10.75;;;;;;;7.11;79.14;101485.72;4945537;28;20047;-88
2023/03/19 23:27:44;;;;;;;18.95;10.52;;;;;;;6.95;79.12;101460.19;4948730;28;20066;-88
2023/03/19 23:30:20;;;;;;;19.92;9.98;;;;;;;6.90;78.99;101446.31;4963205;28;20057;-86
2023/03/19 23:36:32;;;;;;;20.17;10.30;;;;;;;6.92;80.03;101467.59;4974985;28;19981;-87
2023/03/19 23:39:28;;;;;;;18.73;9.90;;;;;;;6.80;80.13;101463.19;4977165;28;20089;-86
2023/03/19 23:41:59;;;;;;;;;;;;;;;6.58;81.30;101470.16;4964484;28;20054;-85
2023/03/19 23:44:45;;;;;;;20.05;10.70;;;;;;;6.66;80.88;101446.38;4983671;28;19914;-86
2023/03/19 23:47:11;;;;;;;19.55;10.45;;;;;;;6.69;80.50;101440.78;4982438;28;20094;-85
2023/03/19 23:49:45;;;;;;;21.05;10.75;;;;;;;6.59;80.53;101434.44;4955693;28;20041;-87
2023/03/19 23:52:14;;;;;;;21.10;10.75;;;;;;;6.70;80.53;101447.00;4904135;29;20039;-86
2023/03/19 23:54:41;;;;;;;25.23;11.45;;;;;;;6.81;80.27;101449.69;4936477;29;20036;-86
2023/03/19 23:57:19;;;;;;;;;;;;;;;6.91;80.11;101456.03;4935940;29;20046;-86
2023/03/19 23:59:57;;;;;;;20.77;10.73;;;;;;;6.94;79.58;101450.44;4934982;29;19910;-85
